createdAt,value
2018-07-08T00:02:07.734Z,56.83
2018-07-08T00:04:36.571Z,56.87
2018-07-08T00:07:05.215Z,57.08
2018-07-08T00:09:33.837Z,57.69
2018-07-08T00:12:02.513Z,57.19
2018-07-08T00:14:32.176Z,57.41
2018-07-08T00:17:00.823Z,57.28
2018-07-08T00:19:29.471Z,57.37
2018-07-08T00:21:58.170Z,57.43
2018-07-08T00:24:26.936Z,58.03
2018-07-08T00:26:55.595Z,57.31
2018-07-08T00:29:24.308Z,57.76
2018-07-08T00:31:53.014Z,57.22
2018-07-08T00:34:21.872Z,57.36
2018-07-08T00:36:50.530Z,57.93
2018-07-08T00:39:19.323Z,57.92
2018-07-08T00:41:47.953Z,57.70
2018-07-08T00:44:16.594Z,58.03
2018-07-08T00:46:45.308Z,58.40
2018-07-08T00:49:13.963Z,58.20
2018-07-08T00:51:42.607Z,58.02
2018-07-08T00:54:11.190Z,58.34
2018-07-08T00:56:39.951Z,58.34
2018-07-08T00:59:08.609Z,58.49
2018-07-08T01:01:37.467Z,58.86
2018-07-08T01:04:06.160Z,59.04
2018-07-08T01:06:34.764Z,58.97
2018-07-08T01:09:03.474Z,58.78
2018-07-08T01:11:32.162Z,59.00
2018-07-08T01:14:00.821Z,59.14
2018-07-08T01:16:29.466Z,59.04
2018-07-08T01:18:58.104Z,59.12
2018-07-08T01:24:01.509Z,59.63
2018-07-08T01:26:30.178Z,59.83
2018-07-08T01:28:58.908Z,59.63
2018-07-08T01:31:27.582Z,59.88
2018-07-08T01:33:56.206Z,59.82
2018-07-08T01:36:24.796Z,59.96
2018-07-08T01:38:53.426Z,60.12
2018-07-08T01:41:22.568Z,59.92
2018-07-08T01:43:51.297Z,60.29
2018-07-08T01:46:20.110Z,60.00
2018-07-08T01:48:48.731Z,60.44
2018-07-08T01:51:17.448Z,60.76
2018-07-08T01:53:46.204Z,61.05
2018-07-08T01:56:14.789Z,60.83
2018-07-08T01:58:44.386Z,60.90
2018-07-08T02:01:13.052Z,60.63
2018-07-08T02:03:41.686Z,60.95
2018-07-08T02:06:10.419Z,61.01
2018-07-08T02:08:39.025Z,60.97
2018-07-08T02:11:07.679Z,61.03
2018-07-08T02:13:36.713Z,60.92
2018-07-08T02:16:05.505Z,60.72
2018-07-08T02:18:34.096Z,60.87
2018-07-08T02:21:02.755Z,60.85
2018-07-08T02:23:31.404Z,60.92
2018-07-08T02:26:00.081Z,60.56
2018-07-08T02:28:28.842Z,60.66
2018-07-08T02:30:57.529Z,60.40
2018-07-08T02:33:26.170Z,60.46
2018-07-08T02:35:55.179Z,60.55
2018-07-08T02:38:23.851Z,60.25
2018-07-08T02:40:52.656Z,60.65
2018-07-08T02:43:21.304Z,60.21
2018-07-08T02:45:50.699Z,60.53
2018-07-08T02:48:19.402Z,60.63
2018-07-08T02:50:48.053Z,60.53
2018-07-08T02:53:16.720Z,60.57
2018-07-08T02:55:45.316Z,60.59
2018-07-08T02:58:13.888Z,60.72
2018-07-08T03:00:42.600Z,61.05
2018-07-08T03:03:11.237Z,60.50
2018-07-08T03:05:40.194Z,60.27
2018-07-08T03:08:08.839Z,60.45
2018-07-08T03:10:37.479Z,60.68
2018-07-08T03:13:06.339Z,60.08
2018-07-08T03:15:35.019Z,60.04
2018-07-08T03:18:03.792Z,59.90
2018-07-08T03:20:32.407Z,59.65
2018-07-08T03:23:01.025Z,59.84
2018-07-08T03:25:29.650Z,59.98
2018-07-08T03:27:58.264Z,59.65
2018-07-08T03:30:26.881Z,59.33
2018-07-08T03:32:55.518Z,59.46
2018-07-08T03:35:24.328Z,59.08
2018-07-08T03:37:53.116Z,58.86
2018-07-08T03:40:21.792Z,58.63
2018-07-08T03:42:54.392Z,58.48
2018-07-08T03:45:23.197Z,58.46
2018-07-08T03:47:51.834Z,57.56
2018-07-08T03:50:20.468Z,57.76
2018-07-08T03:52:49.185Z,57.87
2018-07-08T03:55:17.846Z,57.73
2018-07-08T03:57:46.535Z,57.49
2018-07-08T04:00:15.149Z,57.41
2018-07-08T04:02:44.003Z,57.42
2018-07-08T04:05:12.808Z,56.24
2018-07-08T04:07:41.465Z,56.77
2018-07-08T04:10:10.170Z,56.50
2018-07-08T04:12:38.858Z,56.38
2018-07-08T04:15:07.678Z,55.64
2018-07-08T04:17:36.454Z,55.83
2018-07-08T04:20:05.068Z,55.66
2018-07-08T04:22:33.803Z,55.55
2018-07-08T04:25:02.651Z,55.42
2018-07-08T04:27:31.400Z,56.00
2018-07-08T04:30:00.133Z,55.68
2018-07-08T04:32:28.912Z,55.38
2018-07-08T04:34:57.526Z,54.92
2018-07-08T04:37:26.392Z,54.60
2018-07-08T04:39:55.088Z,54.52
2018-07-08T04:42:23.718Z,55.04
2018-07-08T04:44:52.398Z,54.55
2018-07-08T04:47:20.974Z,54.71
2018-07-08T04:49:49.766Z,54.42
2018-07-08T04:52:18.500Z,54.13
2018-07-08T04:54:47.215Z,54.11
2018-07-08T04:57:16.063Z,53.86
2018-07-08T04:59:44.743Z,54.14
2018-07-08T05:02:13.352Z,53.60
2018-07-08T05:04:42.241Z,53.59
2018-07-08T05:07:10.961Z,52.94
2018-07-08T05:09:40.187Z,52.68
2018-07-08T05:12:08.901Z,52.14
2018-07-08T05:14:37.602Z,52.06
2018-07-08T05:17:06.212Z,52.53
2018-07-08T05:19:34.821Z,52.09
2018-07-08T05:22:03.507Z,51.74
2018-07-08T05:24:32.248Z,51.88
2018-07-08T05:27:00.820Z,51.70
2018-07-08T05:29:29.428Z,51.34
2018-07-08T05:31:57.992Z,51.39
2018-07-08T05:34:26.694Z,49.76
2018-07-08T05:36:55.410Z,49.76
2018-07-08T05:39:24.022Z,50.13
2018-07-08T05:41:52.675Z,50.10
2018-07-08T05:44:21.653Z,50.33
2018-07-08T05:46:50.418Z,50.07
2018-07-08T05:49:19.590Z,49.56
2018-07-08T05:51:48.377Z,48.27
2018-07-08T05:54:17.106Z,48.26
2018-07-08T05:56:45.773Z,48.56
2018-07-08T05:59:14.440Z,48.83
2018-07-08T06:01:43.052Z,48.49
2018-07-08T06:04:11.695Z,48.13
2018-07-08T06:06:40.354Z,47.77
2018-07-08T06:09:08.969Z,47.88
2018-07-08T06:11:37.604Z,47.49
2018-07-08T06:14:06.346Z,47.35
2018-07-08T06:16:34.972Z,47.72
2018-07-08T06:19:03.794Z,47.71
2018-07-08T06:21:32.566Z,46.99
2018-07-08T06:24:01.292Z,48.59
2018-07-08T06:26:29.919Z,46.98
2018-07-08T06:28:58.613Z,46.26
2018-07-08T06:31:27.376Z,45.84
2018-07-08T06:33:56.306Z,46.13
2018-07-08T06:36:25.052Z,44.81
2018-07-08T06:38:53.804Z,44.80
2018-07-08T06:41:22.553Z,44.54
2018-07-08T06:43:51.162Z,44.34
2018-07-08T06:46:19.784Z,44.33
2018-07-08T06:48:48.590Z,44.89
2018-07-08T06:51:17.208Z,44.95
2018-07-08T06:53:45.891Z,45.31
2018-07-08T06:56:14.543Z,44.45
2018-07-08T06:58:43.303Z,44.72
2018-07-08T07:01:12.139Z,44.28
2018-07-08T07:03:41.308Z,44.05
2018-07-08T07:06:10.025Z,43.94
2018-07-08T07:08:38.693Z,44.05
2018-07-08T07:11:07.399Z,44.12
2018-07-08T07:13:36.056Z,44.26
2018-07-08T07:16:05.017Z,42.98
2018-07-08T07:18:33.624Z,43.33
2018-07-08T07:21:02.432Z,43.29
2018-07-08T07:23:31.135Z,43.47
2018-07-08T07:25:59.734Z,42.85
2018-07-08T07:28:28.491Z,42.55
2018-07-08T07:30:57.136Z,43.13
2018-07-08T07:33:25.928Z,43.15
2018-07-08T07:35:54.566Z,43.29
2018-07-08T07:38:23.323Z,43.27
2018-07-08T07:40:52.042Z,42.77
2018-07-08T07:43:20.923Z,42.71
2018-07-08T07:45:49.774Z,42.61
2018-07-08T07:48:18.619Z,42.92
2018-07-08T07:50:47.266Z,41.82
2018-07-08T07:53:15.859Z,43.35
2018-07-08T07:55:44.543Z,42.35
2018-07-08T07:58:13.207Z,43.07
2018-07-08T08:00:41.917Z,43.03
2018-07-08T08:03:10.642Z,43.20
2018-07-08T08:05:39.357Z,41.77
2018-07-08T08:08:08.074Z,42.72
2018-07-08T08:10:36.634Z,42.12
2018-07-08T08:13:05.357Z,41.34
2018-07-08T08:15:34.077Z,42.11
2018-07-08T08:18:02.720Z,42.13
2018-07-08T08:20:31.355Z,42.37
2018-07-08T08:22:59.993Z,41.64
2018-07-08T08:25:28.765Z,41.13
2018-07-08T08:27:57.393Z,41.42
2018-07-08T08:30:26.144Z,40.35
2018-07-08T08:32:54.938Z,40.50
2018-07-08T08:35:23.597Z,42.10
2018-07-08T08:37:54.262Z,41.04
2018-07-08T08:40:26.010Z,40.81
2018-07-08T08:42:55.180Z,40.89
2018-07-08T08:45:25.235Z,41.44
2018-07-08T08:47:54.094Z,39.96
2018-07-08T08:50:22.846Z,41.18
2018-07-08T08:52:51.854Z,40.72
2018-07-08T08:55:20.598Z,39.56
2018-07-08T08:57:49.423Z,40.46
2018-07-08T09:00:19.137Z,39.93
2018-07-08T09:02:47.879Z,39.72
2018-07-08T09:05:16.563Z,39.78
2018-07-08T09:07:45.211Z,39.71
2018-07-08T09:10:13.865Z,40.51
2018-07-08T09:12:42.652Z,39.53
2018-07-08T09:15:11.310Z,39.97
2018-07-08T09:17:40.080Z,41.70
2018-07-08T09:20:08.714Z,41.01
2018-07-08T09:22:37.470Z,41.87
2018-07-08T09:25:12.861Z,42.16
2018-07-08T09:27:41.727Z,40.81
2018-07-08T09:30:10.421Z,40.70
2018-07-08T09:32:39.094Z,41.66
2018-07-08T09:35:07.740Z,41.82
2018-07-08T09:37:36.427Z,41.00
2018-07-08T09:40:04.991Z,41.02
2018-07-08T09:42:33.722Z,41.12
2018-07-08T09:45:02.459Z,40.73
2018-07-08T09:47:31.111Z,40.50
2018-07-08T09:49:59.752Z,39.71
2018-07-08T09:52:28.403Z,40.18
2018-07-08T09:54:57.077Z,39.79
2018-07-08T09:57:25.717Z,40.93
2018-07-08T09:59:54.438Z,39.34
2018-07-08T10:02:23.515Z,40.58
2018-07-08T10:04:52.154Z,40.20
2018-07-08T10:07:20.862Z,40.58
2018-07-08T10:09:49.535Z,40.38
2018-07-08T10:12:18.185Z,39.23
2018-07-08T10:14:46.889Z,39.71
2018-07-08T10:17:15.579Z,40.78
2018-07-08T10:19:44.682Z,39.89
2018-07-08T10:22:13.284Z,38.77
2018-07-08T10:24:41.986Z,38.59
2018-07-08T10:28:15.066Z,39.00
2018-07-08T10:30:44.080Z,38.54
2018-07-08T10:33:12.772Z,38.80
2018-07-08T10:35:53.772Z,37.89
2018-07-08T10:38:22.566Z,37.93
2018-07-08T10:40:51.223Z,37.58
2018-07-08T10:43:19.936Z,37.04
2018-07-08T10:45:48.627Z,37.34
2018-07-08T10:48:17.722Z,35.96
2018-07-08T10:50:46.519Z,35.35
2018-07-08T10:53:15.090Z,35.98
2018-07-08T10:55:44.330Z,37.33
2018-07-08T10:58:13.260Z,37.78
2018-07-08T11:00:41.902Z,36.93
2018-07-08T11:03:10.588Z,36.78
2018-07-08T11:05:39.469Z,37.79
2018-07-08T11:08:08.128Z,38.56
2018-07-08T11:10:36.896Z,38.27
2018-07-08T11:13:05.619Z,36.28
2018-07-08T11:15:34.291Z,35.52
2018-07-08T11:18:02.900Z,34.54
2018-07-08T11:20:31.650Z,33.32
2018-07-08T11:23:00.420Z,34.90
2018-07-08T11:25:29.075Z,33.78
2018-07-08T11:27:58.270Z,34.18
2018-07-08T11:30:26.886Z,35.23
2018-07-08T11:32:55.625Z,34.92
2018-07-08T11:35:24.268Z,33.26
2018-07-08T11:37:52.831Z,32.95
2018-07-08T11:40:21.491Z,33.46
2018-07-08T11:42:50.208Z,33.71
2018-07-08T11:45:18.798Z,33.75
2018-07-08T11:47:47.382Z,34.11
2018-07-08T11:50:16.054Z,34.79
2018-07-08T11:52:44.838Z,33.83
2018-07-08T11:55:13.561Z,33.02
2018-07-08T11:57:42.330Z,33.05
2018-07-08T12:00:10.965Z,33.15
2018-07-08T12:02:39.665Z,34.28
2018-07-08T12:05:08.398Z,35.90
2018-07-08T12:07:36.974Z,32.97
2018-07-08T12:10:05.677Z,33.31
2018-07-08T12:12:34.342Z,33.84
2018-07-08T12:15:02.972Z,32.61
2018-07-08T12:17:31.639Z,33.79
2018-07-08T12:20:00.273Z,32.96
2018-07-08T12:22:28.880Z,32.68
2018-07-08T12:24:57.593Z,32.56
2018-07-08T12:27:26.382Z,31.67
2018-07-08T12:29:55.201Z,32.47
2018-07-08T12:32:23.872Z,32.67
2018-07-08T12:34:52.458Z,31.45
2018-07-08T12:37:21.075Z,31.72
2018-07-08T12:39:49.761Z,31.48
2018-07-08T12:42:18.464Z,32.72
2018-07-08T12:44:47.063Z,33.93
2018-07-08T12:47:15.772Z,34.08
2018-07-08T12:49:44.596Z,34.06
2018-07-08T12:52:13.920Z,33.50
2018-07-08T12:54:43.411Z,32.71
2018-07-08T12:57:13.699Z,31.72
2018-07-08T12:59:44.031Z,32.04
2018-07-08T13:02:14.269Z,31.55
2018-07-08T13:04:44.216Z,31.14
2018-07-08T13:07:13.496Z,32.33
2018-07-08T13:09:43.455Z,30.77
2018-07-08T13:12:12.953Z,33.51
2018-07-08T13:14:42.208Z,31.55
2018-07-08T13:17:10.879Z,31.18
2018-07-08T13:19:39.640Z,28.55
2018-07-08T13:22:08.386Z,26.22
2018-07-08T13:24:37.042Z,27.34
2018-07-08T13:27:05.679Z,23.38
2018-07-08T13:29:34.343Z,22.72
2018-07-08T13:32:03.154Z,21.32
2018-07-08T13:34:31.884Z,20.43
2018-07-08T13:37:00.670Z,20.23
2018-07-08T13:39:29.539Z,18.44
2018-07-08T13:41:58.252Z,18.32
2018-07-08T13:44:26.989Z,18.02
2018-07-08T13:46:55.732Z,18.00
2018-07-08T13:49:24.488Z,17.23
2018-07-08T13:51:53.163Z,17.80
2018-07-08T13:54:21.760Z,18.03
2018-07-08T13:56:50.536Z,19.53
2018-07-08T13:59:19.158Z,19.43
2018-07-08T14:01:48.324Z,20.26
2018-07-08T14:04:16.965Z,20.82
2018-07-08T14:06:45.605Z,22.69
2018-07-08T14:09:14.385Z,23.93
2018-07-08T14:11:43.074Z,26.19
2018-07-08T14:14:11.762Z,26.02
2018-07-08T14:16:40.397Z,26.19
2018-07-08T14:19:09.068Z,26.85
2018-07-08T14:21:37.802Z,27.07
2018-07-08T14:24:06.508Z,26.90
2018-07-08T14:26:35.415Z,26.07
2018-07-08T14:29:04.074Z,26.14
2018-07-08T14:31:32.713Z,26.52
2018-07-08T14:34:01.450Z,28.05
2018-07-08T14:36:30.205Z,28.04
2018-07-08T14:38:58.920Z,28.72
2018-07-08T14:41:27.639Z,28.63
2018-07-08T14:43:56.274Z,28.47
2018-07-08T14:46:25.085Z,28.79
2018-07-08T14:48:53.872Z,28.95
2018-07-08T14:51:22.552Z,28.04
2018-07-08T14:53:51.268Z,29.60
2018-07-08T14:56:19.948Z,28.18
2018-07-08T14:58:48.686Z,27.65
2018-07-08T15:01:17.299Z,28.29
2018-07-08T15:03:45.941Z,26.48
2018-07-08T15:06:14.673Z,25.73
2018-07-08T15:08:43.338Z,25.88
2018-07-08T15:11:12.000Z,27.13
2018-07-08T15:13:40.752Z,27.75
2018-07-08T15:16:09.528Z,27.85
2018-07-08T15:18:38.078Z,27.08
2018-07-08T15:21:06.744Z,27.92
2018-07-08T15:23:35.516Z,28.46
2018-07-08T15:26:04.133Z,28.21
2018-07-08T15:28:33.007Z,29.08
2018-07-08T15:31:01.669Z,30.82
2018-07-08T15:33:30.423Z,31.33
2018-07-08T15:35:59.386Z,32.70
2018-07-08T15:38:28.095Z,33.69
2018-07-08T15:40:56.859Z,33.93
2018-07-08T15:43:25.582Z,34.12
2018-07-08T15:45:54.180Z,34.52
2018-07-08T15:48:22.804Z,34.40
2018-07-08T15:50:51.659Z,34.50
2018-07-08T15:53:20.299Z,35.08
2018-07-08T15:55:48.895Z,35.04
2018-07-08T15:58:17.572Z,35.05
2018-07-08T16:03:14.072Z,35.36
2018-07-08T16:05:42.864Z,35.48
2018-07-08T16:08:11.587Z,35.71
2018-07-08T16:10:40.305Z,35.77
2018-07-08T16:13:09.045Z,35.21
2018-07-08T16:15:37.692Z,34.43
2018-07-08T16:18:06.463Z,34.95
2018-07-08T16:20:35.179Z,34.84
2018-07-08T16:23:03.861Z,35.09
2018-07-08T16:25:32.695Z,35.61
2018-07-08T16:28:01.530Z,34.80
2018-07-08T16:30:30.229Z,34.59
2018-07-08T16:32:59.053Z,34.82
2018-07-08T16:35:28.273Z,35.30
2018-07-08T16:37:57.756Z,34.46
2018-07-08T16:40:27.401Z,35.03
2018-07-08T16:42:57.234Z,34.54
2018-07-08T16:45:26.956Z,34.91
2018-07-08T16:47:55.765Z,34.72
2018-07-08T16:50:24.699Z,35.29
2018-07-08T16:52:53.445Z,36.09
2018-07-08T16:55:22.204Z,36.04
2018-07-08T16:57:50.985Z,36.17
2018-07-08T17:00:19.647Z,36.45
2018-07-08T17:02:48.870Z,36.72
2018-07-08T17:05:18.192Z,36.84
2018-07-08T17:07:47.414Z,36.30
2018-07-08T17:10:16.810Z,35.73
2018-07-08T17:12:45.557Z,36.45
2018-07-08T17:15:14.499Z,36.78
2018-07-08T17:17:43.746Z,35.67
2018-07-08T17:20:12.579Z,35.20
2018-07-08T17:22:41.207Z,36.10
2018-07-08T17:25:09.964Z,35.78
2018-07-08T17:27:38.988Z,35.94
2018-07-08T17:30:07.901Z,35.33
2018-07-08T17:32:36.668Z,33.65
2018-07-08T17:35:05.694Z,34.31
2018-07-08T17:37:34.469Z,34.70
2018-07-08T17:40:03.045Z,34.82
2018-07-08T17:42:31.740Z,34.65
2018-07-08T17:45:00.453Z,34.65
2018-07-08T17:47:29.856Z,35.01
2018-07-08T17:49:58.622Z,35.06
2018-07-08T17:52:27.501Z,36.19
2018-07-08T17:54:56.300Z,36.80
2018-07-08T17:57:24.942Z,36.48
2018-07-08T17:59:53.624Z,36.31
2018-07-08T18:02:22.389Z,35.64
2018-07-08T18:04:51.148Z,35.75
2018-07-08T18:07:19.858Z,36.06
2018-07-08T18:09:48.768Z,36.27
2018-07-08T18:12:17.686Z,36.35
2018-07-08T18:14:46.341Z,36.84
2018-07-08T18:17:15.001Z,36.35
2018-07-08T18:19:43.692Z,36.88
2018-07-08T18:22:12.353Z,36.76
2018-07-08T18:24:41.125Z,38.13
2018-07-08T18:27:10.738Z,37.73
2018-07-08T18:29:39.420Z,38.48
2018-07-08T18:32:08.089Z,38.25
2018-07-08T18:34:36.933Z,38.82
2018-07-08T18:37:05.564Z,39.05
2018-07-08T18:39:34.275Z,39.35
2018-07-08T18:42:02.972Z,39.87
2018-07-08T18:44:31.658Z,40.12
2018-07-08T18:47:00.435Z,40.71
2018-07-08T18:49:29.118Z,40.58
2018-07-08T18:51:58.019Z,40.24
2018-07-08T18:54:26.595Z,40.71
2018-07-08T18:56:55.395Z,40.90
2018-07-08T18:59:24.390Z,41.04
2018-07-08T19:01:53.048Z,40.70
2018-07-08T19:04:21.743Z,41.39
2018-07-08T19:06:50.499Z,41.53
2018-07-08T19:09:19.242Z,41.13
2018-07-08T19:11:48.032Z,41.35
2018-07-08T19:14:17.026Z,41.28
2018-07-08T19:16:45.772Z,41.10
2018-07-08T19:19:14.432Z,41.38
2018-07-08T19:21:43.795Z,41.55
2018-07-08T19:24:12.915Z,42.04
2018-07-08T19:26:42.040Z,41.87
2018-07-08T19:29:11.275Z,42.32
2018-07-08T19:31:40.671Z,42.58
2018-07-08T19:34:09.547Z,43.20
2018-07-08T19:36:38.240Z,43.16
2018-07-08T19:39:08.417Z,43.28
2018-07-08T19:41:38.263Z,43.62
2018-07-08T19:44:07.139Z,44.20
2018-07-08T19:46:36.022Z,43.98
2018-07-08T19:49:05.567Z,43.59
2018-07-08T19:51:35.292Z,44.02
2018-07-08T19:54:04.811Z,43.51
2018-07-08T19:56:34.732Z,43.40
2018-07-08T19:59:04.149Z,43.80
2018-07-08T20:01:33.764Z,43.31
2018-07-08T20:04:02.976Z,43.25
2018-07-08T20:06:31.878Z,43.49
2018-07-08T20:09:00.562Z,43.60
2018-07-08T20:11:29.343Z,43.47
2018-07-08T20:13:57.947Z,43.61
2018-07-08T20:16:26.773Z,44.01
2018-07-08T20:18:56.240Z,43.95
2018-07-08T20:21:25.200Z,43.65
2018-07-08T20:23:53.653Z,44.62
2018-07-08T20:26:22.993Z,44.05
2018-07-08T20:28:53.033Z,44.68
2018-07-08T20:31:22.671Z,43.81
2018-07-08T20:33:52.364Z,44.53
2018-07-08T20:36:21.633Z,44.77
2018-07-08T20:38:50.711Z,45.10
2018-07-08T20:41:19.706Z,45.76
2018-07-08T20:43:48.640Z,46.13
2018-07-08T20:46:18.333Z,47.34
2018-07-08T20:48:47.188Z,47.15
2018-07-08T20:51:15.945Z,46.82
2018-07-08T20:53:45.532Z,46.89
2018-07-08T20:56:15.454Z,47.53
2018-07-08T20:58:45.348Z,49.43
2018-07-08T21:01:13.998Z,48.52
2018-07-08T21:03:42.739Z,48.04
2018-07-08T21:06:11.420Z,48.13
2018-07-08T21:08:40.817Z,48.05
2018-07-08T21:11:09.648Z,48.37
2018-07-08T21:13:39.192Z,48.35
2018-07-08T21:16:08.598Z,48.24
2018-07-08T21:18:37.535Z,48.53
2018-07-08T21:21:06.285Z,49.81
2018-07-08T21:23:35.090Z,50.27
2018-07-08T21:26:03.939Z,49.76
2018-07-08T21:28:32.722Z,49.46
2018-07-08T21:31:01.676Z,49.57
2018-07-08T21:33:30.342Z,49.57
2018-07-08T21:35:59.698Z,49.36
2018-07-08T21:38:29.493Z,49.87
2018-07-08T21:40:58.719Z,49.93
2018-07-08T21:43:27.529Z,49.83
2018-07-08T21:45:56.295Z,50.12
2018-07-08T21:48:24.967Z,49.97
2018-07-08T21:50:53.580Z,49.95
2018-07-08T21:53:22.349Z,50.40
2018-07-08T21:55:51.534Z,50.77
2018-07-08T21:58:20.259Z,51.10
2018-07-08T22:01:10.990Z,51.60
2018-07-08T22:03:40.006Z,51.14
2018-07-08T22:06:08.581Z,51.77
2018-07-08T22:08:37.465Z,51.88
2018-07-08T22:11:07.803Z,51.97
2018-07-08T22:13:36.925Z,51.61
2018-07-08T22:16:05.738Z,51.95
2018-07-08T22:18:34.946Z,51.76
2018-07-08T22:21:03.990Z,51.75
2018-07-08T22:23:33.231Z,52.30
2018-07-08T22:26:02.652Z,52.42
2018-07-08T22:28:31.528Z,52.65
2018-07-08T22:31:00.129Z,52.69
2018-07-08T22:33:28.901Z,52.70
2018-07-08T22:35:57.456Z,53.06
2018-07-08T22:38:26.136Z,53.19
2018-07-08T22:40:54.955Z,53.38
2018-07-08T22:43:23.692Z,53.00
2018-07-08T22:45:52.546Z,53.41
2018-07-08T22:48:21.226Z,53.52
2018-07-08T22:50:49.846Z,53.73
2018-07-08T22:53:18.505Z,53.98
2018-07-08T22:55:47.252Z,53.90
2018-07-08T22:58:15.903Z,53.82
2018-07-08T23:00:55.483Z,54.55
2018-07-08T23:03:55.579Z,54.87
2018-07-08T23:06:24.211Z,54.43
2018-07-08T23:08:53.256Z,55.05
2018-07-08T23:11:22.440Z,55.28
2018-07-08T23:13:52.220Z,55.27
2018-07-08T23:16:21.231Z,55.47
2018-07-08T23:18:49.827Z,55.42
2018-07-08T23:21:18.426Z,55.99
2018-07-08T23:23:47.080Z,56.20
2018-07-08T23:26:15.723Z,56.21
2018-07-08T23:28:44.411Z,56.57
2018-07-08T23:31:13.589Z,56.06
2018-07-08T23:33:42.308Z,56.48
2018-07-08T23:36:11.460Z,56.53
2018-07-08T23:38:40.141Z,56.41
2018-07-08T23:41:09.919Z,56.67
2018-07-08T23:43:38.603Z,57.15
2018-07-08T23:46:07.185Z,56.80
2018-07-08T23:48:35.873Z,57.51
2018-07-08T23:51:04.554Z,57.27
2018-07-08T23:53:33.167Z,56.75
2018-07-08T23:56:01.862Z,57.30
2018-07-08T23:58:30.775Z,57.47
